Terminal Aerodrome Forecast
Issued by NWS Grand Forks, ND

Home | Current Version | Previous Version | Text Only | Print | Product List | Glossary On
Versions: 1 2 3 4 5 6 7 8 9 10 11 12 13 14 15 16
000
FTUS43 KFGF 271130
TAFFAR
TAF
KFAR 271130Z 2712/2812 16006KT P6SM -SHRA OVC070
     FM271300 16007KT P6SM VCTS OVC070CB
     FM271600 18009KT P6SM OVC070
      TEMPO 2716/2720 6SM -TSRA SCT050 BKN070CB
     FM272200 18007KT P6SM SCT200=

USA.gov is the U.S. government's official web portal to all federal, state and local government web resources and services.